sensor_id;sensor_type;location;lat;lon;timestamp;P1;durP1;ratioP1;P2;durP2;ratioP2
35418;SDS011;21525;41.240;16.500;2022-09-13T00:00:33;5.43;;;2.00;;
35418;SDS011;21525;41.240;16.500;2022-09-13T00:03:00;5.43;;;2.00;;
35418;SDS011;21525;41.240;16.500;2022-09-13T00:05:26;5.82;;;1.70;;
35418;SDS011;21525;41.240;16.500;2022-09-13T00:07:53;5.75;;;1.83;;
35418;SDS011;21525;41.240;16.500;2022-09-13T00:10:20;9.82;;;2.30;;
35418;SDS011;21525;41.240;16.500;2022-09-13T00:12:47;10.30;;;2.60;;
35418;SDS011;21525;41.240;16.500;2022-09-13T00:15:14;5.43;;;1.60;;
35418;SDS011;21525;41.240;16.500;2022-09-13T00:17:40;4.90;;;1.77;;
35418;SDS011;21525;41.240;16.500;2022-09-13T00:20:06;5.65;;;1.40;;
35418;SDS011;21525;41.240;16.500;2022-09-13T00:22:33;3.30;;;1.40;;
35418;SDS011;21525;41.240;16.500;2022-09-13T00:24:59;5.30;;;1.88;;
35418;SDS011;21525;41.240;16.500;2022-09-13T00:27:25;1.80;;;1.20;;
35418;SDS011;21525;41.240;16.500;2022-09-13T00:29:51;3.25;;;1.42;;
35418;SDS011;21525;41.240;16.500;2022-09-13T00:32:17;3.28;;;1.10;;
35418;SDS011;21525;41.240;16.500;2022-09-13T00:34:43;3.45;;;1.40;;
35418;SDS011;21525;41.240;16.500;2022-09-13T00:37:08;1.33;;;1.15;;
35418;SDS011;21525;41.240;16.500;2022-09-13T00:39:34;4.60;;;1.30;;
35418;SDS011;21525;41.240;16.500;2022-09-13T00:42:00;2.38;;;1.45;;
35418;SDS011;21525;41.240;16.500;2022-09-13T00:47:12;2.85;;;1.15;;
35418;SDS011;21525;41.240;16.500;2022-09-13T00:49:40;7.47;;;1.60;;
35418;SDS011;21525;41.240;16.500;2022-09-13T00:52:07;2.38;;;1.30;;
35418;SDS011;21525;41.240;16.500;2022-09-13T00:54:41;4.55;;;1.60;;
35418;SDS011;21525;41.240;16.500;2022-09-13T00:57:10;2.72;;;1.40;;
35418;SDS011;21525;41.240;16.500;2022-09-13T00:59:41;1.65;;;1.08;;
35418;SDS011;21525;41.240;16.500;2022-09-13T01:02:11;2.22;;;1.25;;
35418;SDS011;21525;41.240;16.500;2022-09-13T01:04:38;2.42;;;1.13;;
35418;SDS011;21525;41.240;16.500;2022-09-13T01:07:06;3.70;;;1.20;;
35418;SDS011;21525;41.240;16.500;2022-09-13T01:09:34;3.60;;;1.40;;
35418;SDS011;21525;41.240;16.500;2022-09-13T01:12:05;5.75;;;1.55;;
35418;SDS011;21525;41.240;16.500;2022-09-13T01:14:39;2.75;;;1.27;;
35418;SDS011;21525;41.240;16.500;2022-09-13T01:17:06;3.78;;;1.65;;
35418;SDS011;21525;41.240;16.500;2022-09-13T01:19:33;1.80;;;1.27;;
35418;SDS011;21525;41.240;16.500;2022-09-13T01:33:25;1.85;;;1.10;;
35418;SDS011;21525;41.240;16.500;2022-09-13T01:39:04;1.83;;;1.25;;
35418;SDS011;21525;41.240;16.500;2022-09-13T01:46:49;2.47;;;1.30;;
35418;SDS011;21525;41.240;16.500;2022-09-13T01:49:25;2.53;;;1.38;;
35418;SDS011;21525;41.240;16.500;2022-09-13T01:52:41;4.65;;;1.35;;
35418;SDS011;21525;41.240;16.500;2022-09-13T02:01:03;4.65;;;2.80;;
35418;SDS011;21525;41.240;16.500;2022-09-13T02:06:22;11.27;;;7.20;;
35418;SDS011;21525;41.240;16.500;2022-09-13T02:08:53;4.40;;;3.28;;
35418;SDS011;21525;41.240;16.500;2022-09-13T02:11:22;5.88;;;3.28;;
35418;SDS011;21525;41.240;16.500;2022-09-13T02:13:56;7.00;;;4.30;;
35418;SDS011;21525;41.240;16.500;2022-09-13T02:16:31;4.18;;;2.90;;
35418;SDS011;21525;41.240;16.500;2022-09-13T02:19:04;11.52;;;9.93;;
35418;SDS011;21525;41.240;16.500;2022-09-13T02:21:37;11.50;;;8.35;;
35418;SDS011;21525;41.240;16.500;2022-09-13T02:24:10;10.85;;;4.25;;
35418;SDS011;21525;41.240;16.500;2022-09-13T02:26:42;4.75;;;4.03;;
35418;SDS011;21525;41.240;16.500;2022-09-13T02:29:12;6.50;;;3.80;;
35418;SDS011;21525;41.240;16.500;2022-09-13T02:31:55;6.65;;;6.05;;
35418;SDS011;21525;41.240;16.500;2022-09-13T02:34:30;8.15;;;6.63;;
35418;SDS011;21525;41.240;16.500;2022-09-13T02:37:04;6.18;;;5.57;;
35418;SDS011;21525;41.240;16.500;2022-09-13T02:39:32;7.28;;;4.00;;
35418;SDS011;21525;41.240;16.500;2022-09-13T02:42:03;5.28;;;4.25;;
35418;SDS011;21525;41.240;16.500;2022-09-13T02:44:47;8.25;;;6.30;;
35418;SDS011;21525;41.240;16.500;2022-09-13T02:47:31;7.32;;;6.50;;
35418;SDS011;21525;41.240;16.500;2022-09-13T02:50:26;8.68;;;5.25;;
35418;SDS011;21525;41.240;16.500;2022-09-13T02:58:32;6.97;;;5.80;;
35418;SDS011;21525;41.240;16.500;2022-09-13T03:01:07;3.75;;;2.47;;
35418;SDS011;21525;41.240;16.500;2022-09-13T03:03:33;2.50;;;2.30;;
35418;SDS011;21525;41.240;16.500;2022-09-13T03:05:59;5.45;;;3.00;;
35418;SDS011;21525;41.240;16.500;2022-09-13T03:08:25;7.22;;;2.60;;
35418;SDS011;21525;41.240;16.500;2022-09-13T03:13:32;12.52;;;8.98;;
35418;SDS011;21525;41.240;16.500;2022-09-13T03:18:30;7.68;;;2.90;;
35418;SDS011;21525;41.240;16.500;2022-09-13T03:35:16;4.10;;;2.70;;
35418;SDS011;21525;41.240;16.500;2022-09-13T03:46:03;2.92;;;1.25;;
35418;SDS011;21525;41.240;16.500;2022-09-13T03:48:33;2.22;;;1.25;;
35418;SDS011;21525;41.240;16.500;2022-09-13T03:51:03;3.67;;;1.73;;
35418;SDS011;21525;41.240;16.500;2022-09-13T03:53:30;5.25;;;2.10;;
35418;SDS011;21525;41.240;16.500;2022-09-13T03:55:58;7.28;;;1.92;;
35418;SDS011;21525;41.240;16.500;2022-09-13T03:58:24;4.22;;;1.83;;
35418;SDS011;21525;41.240;16.500;2022-09-13T04:00:51;3.03;;;1.23;;
35418;SDS011;21525;41.240;16.500;2022-09-13T04:03:19;4.10;;;2.25;;
35418;SDS011;21525;41.240;16.500;2022-09-13T04:05:45;3.35;;;1.70;;
35418;SDS011;21525;41.240;16.500;2022-09-13T04:08:11;1.85;;;1.60;;
35418;SDS011;21525;41.240;16.500;2022-09-13T04:10:37;4.18;;;1.67;;
35418;SDS011;21525;41.240;16.500;2022-09-13T04:13:05;9.00;;;1.87;;
35418;SDS011;21525;41.240;16.500;2022-09-13T04:15:30;4.35;;;1.63;;
35418;SDS011;21525;41.240;16.500;2022-09-13T04:17:56;3.97;;;1.75;;
35418;SDS011;21525;41.240;16.500;2022-09-13T04:20:22;2.30;;;1.67;;
35418;SDS011;21525;41.240;16.500;2022-09-13T04:22:53;4.07;;;1.75;;
35418;SDS011;21525;41.240;16.500;2022-09-13T04:25:20;5.53;;;1.52;;
35418;SDS011;21525;41.240;16.500;2022-09-13T04:27:47;7.78;;;1.58;;
35418;SDS011;21525;41.240;16.500;2022-09-13T04:30:13;4.35;;;1.80;;
35418;SDS011;21525;41.240;16.500;2022-09-13T04:32:42;4.53;;;1.70;;
35418;SDS011;21525;41.240;16.500;2022-09-13T04:35:09;4.78;;;1.70;;
35418;SDS011;21525;41.240;16.500;2022-09-13T04:37:36;3.47;;;1.60;;
35418;SDS011;21525;41.240;16.500;2022-09-13T04:40:04;4.53;;;1.77;;
35418;SDS011;21525;41.240;16.500;2022-09-13T04:42:33;4.95;;;1.80;;
35418;SDS011;21525;41.240;16.500;2022-09-13T04:44:59;3.58;;;1.55;;
35418;SDS011;21525;41.240;16.500;2022-09-13T04:47:24;5.10;;;1.40;;
35418;SDS011;21525;41.240;16.500;2022-09-13T04:49:50;6.07;;;1.70;;
35418;SDS011;21525;41.240;16.500;2022-09-13T04:52:16;6.40;;;1.88;;
35418;SDS011;21525;41.240;16.500;2022-09-13T04:54:42;6.00;;;1.60;;
35418;SDS011;21525;41.240;16.500;2022-09-13T04:57:08;6.90;;;1.83;;
35418;SDS011;21525;41.240;16.500;2022-09-13T04:59:34;5.07;;;1.63;;
35418;SDS011;21525;41.240;16.500;2022-09-13T05:01:59;11.43;;;2.30;;
35418;SDS011;21525;41.240;16.500;2022-09-13T05:04:25;4.80;;;1.73;;
35418;SDS011;21525;41.240;16.500;2022-09-13T05:06:51;6.10;;;1.63;;
35418;SDS011;21525;41.240;16.500;2022-09-13T05:09:17;3.83;;;1.83;;
35418;SDS011;21525;41.240;16.500;2022-09-13T05:11:43;7.43;;;2.15;;
35418;SDS011;21525;41.240;16.500;2022-09-13T05:14:09;9.48;;;2.45;;
35418;SDS011;21525;41.240;16.500;2022-09-13T05:16:36;5.28;;;1.75;;
35418;SDS011;21525;41.240;16.500;2022-09-13T05:19:02;5.30;;;1.70;;
35418;SDS011;21525;41.240;16.500;2022-09-13T05:21:28;9.45;;;2.17;;
35418;SDS011;21525;41.240;16.500;2022-09-13T05:23:54;3.70;;;2.00;;
35418;SDS011;21525;41.240;16.500;2022-09-13T05:26:21;9.38;;;2.20;;
35418;SDS011;21525;41.240;16.500;2022-09-13T05:28:48;7.60;;;2.53;;
35418;SDS011;21525;41.240;16.500;2022-09-13T05:31:16;8.93;;;2.63;;
35418;SDS011;21525;41.240;16.500;2022-09-13T05:33:47;8.25;;;2.60;;
35418;SDS011;21525;41.240;16.500;2022-09-13T05:36:17;13.27;;;2.80;;
35418;SDS011;21525;41.240;16.500;2022-09-13T05:38:42;9.38;;;3.35;;
35418;SDS011;21525;41.240;16.500;2022-09-13T05:41:08;9.75;;;5.60;;
35418;SDS011;21525;41.240;16.500;2022-09-13T05:43:35;10.88;;;6.88;;
35418;SDS011;21525;41.240;16.500;2022-09-13T05:46:11;15.95;;;8.50;;
35418;SDS011;21525;41.240;16.500;2022-09-13T05:51:09;10.13;;;4.20;;
35418;SDS011;21525;41.240;16.500;2022-09-13T05:53:37;15.18;;;4.63;;
35418;SDS011;21525;41.240;16.500;2022-09-13T05:58:31;14.40;;;4.85;;
35418;SDS011;21525;41.240;16.500;2022-09-13T06:00:59;9.13;;;5.00;;
35418;SDS011;21525;41.240;16.500;2022-09-13T06:03:25;21.95;;;5.60;;
35418;SDS011;21525;41.240;16.500;2022-09-13T06:05:54;20.00;;;5.57;;
35418;SDS011;21525;41.240;16.500;2022-09-13T06:08:22;11.45;;;4.90;;
35418;SDS011;21525;41.240;16.500;2022-09-13T06:10:58;12.82;;;5.78;;
35418;SDS011;21525;41.240;16.500;2022-09-13T06:13:32;12.52;;;4.28;;
35418;SDS011;21525;41.240;16.500;2022-09-13T06:15:59;8.05;;;3.55;;
35418;SDS011;21525;41.240;16.500;2022-09-13T06:18:26;14.15;;;3.67;;
35418;SDS011;21525;41.240;16.500;2022-09-13T06:20:57;11.02;;;4.22;;
35418;SDS011;21525;41.240;16.500;2022-09-13T06:23:25;12.13;;;4.13;;
35418;SDS011;21525;41.240;16.500;2022-09-13T06:28:33;15.43;;;5.20;;
35418;SDS011;21525;41.240;16.500;2022-09-13T06:31:01;10.48;;;4.63;;
35418;SDS011;21525;41.240;16.500;2022-09-13T06:36:05;12.20;;;5.43;;
35418;SDS011;21525;41.240;16.500;2022-09-13T06:38:33;13.32;;;6.05;;
35418;SDS011;21525;41.240;16.500;2022-09-13T06:41:03;10.95;;;4.75;;
35418;SDS011;21525;41.240;16.500;2022-09-13T06:43:34;13.07;;;4.55;;
35418;SDS011;21525;41.240;16.500;2022-09-13T06:46:04;10.25;;;3.97;;
35418;SDS011;21525;41.240;16.500;2022-09-13T06:48:35;10.60;;;4.32;;
35418;SDS011;21525;41.240;16.500;2022-09-13T06:51:04;14.15;;;4.20;;
35418;SDS011;21525;41.240;16.500;2022-09-13T06:53:34;11.07;;;4.13;;
35418;SDS011;21525;41.240;16.500;2022-09-13T06:56:05;12.50;;;4.65;;
35418;SDS011;21525;41.240;16.500;2022-09-13T06:58:32;18.35;;;4.22;;
35418;SDS011;21525;41.240;16.500;2022-09-13T07:01:06;15.90;;;4.60;;
35418;SDS011;21525;41.240;16.500;2022-09-13T07:03:39;9.75;;;3.00;;
35418;SDS011;21525;41.240;16.500;2022-09-13T07:08:40;8.20;;;2.33;;
35418;SDS011;21525;41.240;16.500;2022-09-13T07:11:08;5.35;;;2.47;;
35418;SDS011;21525;41.240;16.500;2022-09-13T07:13:35;4.47;;;2.25;;
35418;SDS011;21525;41.240;16.500;2022-09-13T07:16:05;5.47;;;2.90;;
35418;SDS011;21525;41.240;16.500;2022-09-13T07:18:34;6.38;;;2.53;;
35418;SDS011;21525;41.240;16.500;2022-09-13T07:21:02;6.28;;;2.67;;
35418;SDS011;21525;41.240;16.500;2022-09-13T07:23:30;6.20;;;2.70;;
35418;SDS011;21525;41.240;16.500;2022-09-13T07:25:57;8.95;;;3.20;;
35418;SDS011;21525;41.240;16.500;2022-09-13T07:28:45;3.58;;;2.17;;
35418;SDS011;21525;41.240;16.500;2022-09-13T07:31:14;5.38;;;2.05;;
35418;SDS011;21525;41.240;16.500;2022-09-13T07:33:42;7.07;;;4.03;;
35418;SDS011;21525;41.240;16.500;2022-09-13T07:36:09;4.63;;;2.20;;
35418;SDS011;21525;41.240;16.500;2022-09-13T07:38:37;7.53;;;2.78;;
35418;SDS011;21525;41.240;16.500;2022-09-13T07:41:10;13.45;;;3.53;;
35418;SDS011;21525;41.240;16.500;2022-09-13T07:43:38;13.57;;;2.65;;
35418;SDS011;21525;41.240;16.500;2022-09-13T07:46:07;6.63;;;2.78;;
35418;SDS011;21525;41.240;16.500;2022-09-13T07:48:37;5.97;;;2.10;;
35418;SDS011;21525;41.240;16.500;2022-09-13T07:51:05;8.27;;;2.05;;
35418;SDS011;21525;41.240;16.500;2022-09-13T07:53:33;7.43;;;4.15;;
35418;SDS011;21525;41.240;16.500;2022-09-13T07:56:21;3.97;;;2.22;;
35418;SDS011;21525;41.240;16.500;2022-09-13T07:58:48;6.82;;;1.98;;
35418;SDS011;21525;41.240;16.500;2022-09-13T08:01:24;5.82;;;2.90;;
35418;SDS011;21525;41.240;16.500;2022-09-13T08:03:59;2.73;;;1.63;;
35418;SDS011;21525;41.240;16.500;2022-09-13T08:06:28;8.10;;;2.25;;
35418;SDS011;21525;41.240;16.500;2022-09-13T08:08:55;4.10;;;2.53;;
35418;SDS011;21525;41.240;16.500;2022-09-13T08:11:24;8.00;;;3.58;;
35418;SDS011;21525;41.240;16.500;2022-09-13T08:13:52;4.57;;;2.10;;
35418;SDS011;21525;41.240;16.500;2022-09-13T08:16:19;5.03;;;2.45;;
35418;SDS011;21525;41.240;16.500;2022-09-13T08:18:47;5.80;;;2.15;;
35418;SDS011;21525;41.240;16.500;2022-09-13T08:21:14;4.70;;;1.60;;
35418;SDS011;21525;41.240;16.500;2022-09-13T08:23:41;6.28;;;1.98;;
35418;SDS011;21525;41.240;16.500;2022-09-13T08:26:07;5.60;;;2.10;;
35418;SDS011;21525;41.240;16.500;2022-09-13T08:28:34;4.82;;;1.98;;
35418;SDS011;21525;41.240;16.500;2022-09-13T08:31:03;3.78;;;1.92;;
35418;SDS011;21525;41.240;16.500;2022-09-13T08:33:38;4.03;;;2.80;;
35418;SDS011;21525;41.240;16.500;2022-09-13T08:36:04;5.25;;;2.08;;
35418;SDS011;21525;41.240;16.500;2022-09-13T08:38:30;5.75;;;1.92;;
35418;SDS011;21525;41.240;16.500;2022-09-13T08:40:57;4.47;;;3.22;;
35418;SDS011;21525;41.240;16.500;2022-09-13T08:46:30;4.95;;;1.98;;
35418;SDS011;21525;41.240;16.500;2022-09-13T08:49:00;3.60;;;2.15;;
35418;SDS011;21525;41.240;16.500;2022-09-13T08:51:33;14.60;;;10.88;;
35418;SDS011;21525;41.240;16.500;2022-09-13T08:54:00;4.75;;;1.88;;
35418;SDS011;21525;41.240;16.500;2022-09-13T09:01:43;2.00;;;1.60;;
35418;SDS011;21525;41.240;16.500;2022-09-13T09:04:34;3.05;;;1.60;;
35418;SDS011;21525;41.240;16.500;2022-09-13T09:07:25;4.10;;;1.70;;
35418;SDS011;21525;41.240;16.500;2022-09-13T09:10:12;8.05;;;3.42;;
35418;SDS011;21525;41.240;16.500;2022-09-13T09:12:46;6.32;;;2.85;;
35418;SDS011;21525;41.240;16.500;2022-09-13T09:15:21;3.10;;;2.22;;
35418;SDS011;21525;41.240;16.500;2022-09-13T09:20:50;5.68;;;1.70;;
35418;SDS011;21525;41.240;16.500;2022-09-13T09:23:21;4.35;;;1.45;;
35418;SDS011;21525;41.240;16.500;2022-09-13T09:25:51;3.33;;;1.40;;
35418;SDS011;21525;41.240;16.500;2022-09-13T09:28:22;3.63;;;1.65;;
35418;SDS011;21525;41.240;16.500;2022-09-13T09:31:03;5.93;;;1.90;;
35418;SDS011;21525;41.240;16.500;2022-09-13T09:33:59;7.43;;;2.00;;
35418;SDS011;21525;41.240;16.500;2022-09-13T09:36:36;3.55;;;1.40;;
35418;SDS011;21525;41.240;16.500;2022-09-13T09:39:06;3.70;;;1.10;;
35418;SDS011;21525;41.240;16.500;2022-09-13T09:41:36;5.63;;;1.70;;
35418;SDS011;21525;41.240;16.500;2022-09-13T09:44:19;2.83;;;1.38;;
35418;SDS011;21525;41.240;16.500;2022-09-13T09:46:54;4.05;;;1.80;;
35418;SDS011;21525;41.240;16.500;2022-09-13T09:52:29;5.55;;;1.77;;
35418;SDS011;21525;41.240;16.500;2022-09-13T09:55:03;4.55;;;2.53;;
35418;SDS011;21525;41.240;16.500;2022-09-13T10:00:18;7.13;;;4.25;;
35418;SDS011;21525;41.240;16.500;2022-09-13T10:02:45;3.35;;;1.85;;
35418;SDS011;21525;41.240;16.500;2022-09-13T10:05:16;4.95;;;2.20;;
35418;SDS011;21525;41.240;16.500;2022-09-13T10:07:48;3.78;;;1.50;;
35418;SDS011;21525;41.240;16.500;2022-09-13T10:10:24;3.45;;;1.55;;
35418;SDS011;21525;41.240;16.500;2022-09-13T10:13:01;2.93;;;1.27;;
35418;SDS011;21525;41.240;16.500;2022-09-13T10:15:29;5.35;;;2.50;;
35418;SDS011;21525;41.240;16.500;2022-09-13T10:17:59;5.03;;;2.45;;
35418;SDS011;21525;41.240;16.500;2022-09-13T10:20:28;6.95;;;2.10;;
35418;SDS011;21525;41.240;16.500;2022-09-13T10:23:16;4.60;;;1.95;;
35418;SDS011;21525;41.240;16.500;2022-09-13T10:25:45;6.28;;;2.17;;
35418;SDS011;21525;41.240;16.500;2022-09-13T10:28:26;5.40;;;3.72;;
35418;SDS011;21525;41.240;16.500;2022-09-13T10:30:57;3.25;;;1.48;;
35418;SDS011;21525;41.240;16.500;2022-09-13T10:33:40;3.63;;;1.98;;
35418;SDS011;21525;41.240;16.500;2022-09-13T10:36:20;5.55;;;2.40;;
35418;SDS011;21525;41.240;16.500;2022-09-13T10:39:05;4.43;;;2.00;;
35418;SDS011;21525;41.240;16.500;2022-09-13T10:41:38;5.97;;;1.70;;
35418;SDS011;21525;41.240;16.500;2022-09-13T10:47:03;3.38;;;2.38;;
35418;SDS011;21525;41.240;16.500;2022-09-13T10:49:40;2.70;;;1.60;;
35418;SDS011;21525;41.240;16.500;2022-09-13T10:52:24;3.78;;;1.35;;
35418;SDS011;21525;41.240;16.500;2022-09-13T10:55:15;4.93;;;2.00;;
35418;SDS011;21525;41.240;16.500;2022-09-13T10:57:44;2.80;;;1.70;;
35418;SDS011;21525;41.240;16.500;2022-09-13T11:00:57;2.00;;;1.48;;
35418;SDS011;21525;41.240;16.500;2022-09-13T11:11:31;1.83;;;1.30;;
35418;SDS011;21525;41.240;16.500;2022-09-13T11:14:20;2.30;;;1.40;;
35418;SDS011;21525;41.240;16.500;2022-09-13T11:17:16;2.38;;;1.40;;
35418;SDS011;21525;41.240;16.500;2022-09-13T11:47:28;5.68;;;1.58;;
35418;SDS011;21525;41.240;16.500;2022-09-13T11:55:25;3.03;;;1.30;;
35418;SDS011;21525;41.240;16.500;2022-09-13T11:58:05;3.15;;;1.25;;
35418;SDS011;21525;41.240;16.500;2022-09-13T12:00:41;3.10;;;1.52;;
35418;SDS011;21525;41.240;16.500;2022-09-13T12:03:31;1.90;;;1.15;;
35418;SDS011;21525;41.240;16.500;2022-09-13T12:08:49;1.75;;;1.33;;
35418;SDS011;21525;41.240;16.500;2022-09-13T12:11:21;4.35;;;1.65;;
35418;SDS011;21525;41.240;16.500;2022-09-13T12:13:56;3.67;;;1.30;;
35418;SDS011;21525;41.240;16.500;2022-09-13T12:16:28;3.63;;;1.27;;
35418;SDS011;21525;41.240;16.500;2022-09-13T12:18:59;2.13;;;1.45;;
35418;SDS011;21525;41.240;16.500;2022-09-13T12:21:30;1.75;;;1.52;;
35418;SDS011;21525;41.240;16.500;2022-09-13T12:26:55;2.38;;;1.25;;
35418;SDS011;21525;41.240;16.500;2022-09-13T12:29:31;3.08;;;1.10;;
35418;SDS011;21525;41.240;16.500;2022-09-13T12:32:05;2.40;;;1.20;;
35418;SDS011;21525;41.240;16.500;2022-09-13T12:34:47;2.85;;;1.33;;
35418;SDS011;21525;41.240;16.500;2022-09-13T12:48:42;2.97;;;1.40;;
35418;SDS011;21525;41.240;16.500;2022-09-13T13:05:26;2.90;;;1.58;;
35418;SDS011;21525;41.240;16.500;2022-09-13T13:07:56;3.70;;;1.30;;
35418;SDS011;21525;41.240;16.500;2022-09-13T13:10:35;1.40;;;0.90;;
35418;SDS011;21525;41.240;16.500;2022-09-13T13:13:18;2.08;;;1.15;;
35418;SDS011;21525;41.240;16.500;2022-09-13T13:15:53;3.40;;;1.70;;
35418;SDS011;21525;41.240;16.500;2022-09-13T13:25:57;2.35;;;1.00;;
35418;SDS011;21525;41.240;16.500;2022-09-13T13:32:03;2.33;;;1.23;;
35418;SDS011;21525;41.240;16.500;2022-09-13T13:36:23;1.88;;;1.30;;
35418;SDS011;21525;41.240;16.500;2022-09-13T13:38:56;1.70;;;1.25;;
35418;SDS011;21525;41.240;16.500;2022-09-13T13:43:58;1.40;;;1.13;;
35418;SDS011;21525;41.240;16.500;2022-09-13T13:46:26;4.03;;;1.42;;
35418;SDS011;21525;41.240;16.500;2022-09-13T13:49:34;5.05;;;1.52;;
35418;SDS011;21525;41.240;16.500;2022-09-13T13:59:49;2.50;;;1.23;;
35418;SDS011;21525;41.240;16.500;2022-09-13T14:02:20;4.03;;;1.45;;
35418;SDS011;21525;41.240;16.500;2022-09-13T14:07:39;1.25;;;0.98;;
35418;SDS011;21525;41.240;16.500;2022-09-13T14:13:29;1.58;;;1.27;;
35418;SDS011;21525;41.240;16.500;2022-09-13T14:26:52;2.10;;;1.10;;
35418;SDS011;21525;41.240;16.500;2022-09-13T14:29:22;1.48;;;1.00;;
35418;SDS011;21525;41.240;16.500;2022-09-13T14:31:51;2.67;;;1.00;;
35418;SDS011;21525;41.240;16.500;2022-09-13T14:37:05;2.33;;;1.20;;
35418;SDS011;21525;41.240;16.500;2022-09-13T14:39:55;2.22;;;1.05;;
35418;SDS011;21525;41.240;16.500;2022-09-13T14:42:43;2.75;;;1.25;;
35418;SDS011;21525;41.240;16.500;2022-09-13T14:50:50;2.67;;;0.98;;
35418;SDS011;21525;41.240;16.500;2022-09-13T14:53:23;2.55;;;1.65;;
35418;SDS011;21525;41.240;16.500;2022-09-13T14:55:52;1.65;;;1.00;;
35418;SDS011;21525;41.240;16.500;2022-09-13T14:58:23;1.20;;;1.10;;
35418;SDS011;21525;41.240;16.500;2022-09-13T15:01:02;1.58;;;0.93;;
35418;SDS011;21525;41.240;16.500;2022-09-13T15:03:32;1.30;;;1.20;;
35418;SDS011;21525;41.240;16.500;2022-09-13T15:05:59;2.25;;;1.20;;
35418;SDS011;21525;41.240;16.500;2022-09-13T15:11:11;1.83;;;1.00;;
35418;SDS011;21525;41.240;16.500;2022-09-13T15:13:39;3.85;;;1.45;;
35418;SDS011;21525;41.240;16.500;2022-09-13T15:16:24;2.00;;;0.88;;
35418;SDS011;21525;41.240;16.500;2022-09-13T15:19:13;3.60;;;1.17;;
35418;SDS011;21525;41.240;16.500;2022-09-13T15:21:51;1.30;;;0.90;;
35418;SDS011;21525;41.240;16.500;2022-09-13T15:24:31;2.05;;;0.95;;
35418;SDS011;21525;41.240;16.500;2022-09-13T15:27:14;1.48;;;1.00;;
35418;SDS011;21525;41.240;16.500;2022-09-13T15:29:53;2.33;;;0.90;;
35418;SDS011;21525;41.240;16.500;2022-09-13T15:32:22;2.55;;;0.95;;
35418;SDS011;21525;41.240;16.500;2022-09-13T15:34:56;1.83;;;1.45;;
35418;SDS011;21525;41.240;16.500;2022-09-13T15:37:28;1.90;;;1.30;;
35418;SDS011;21525;41.240;16.500;2022-09-13T15:40:09;1.77;;;0.95;;
35418;SDS011;21525;41.240;16.500;2022-09-13T15:42:38;1.25;;;0.82;;
35418;SDS011;21525;41.240;16.500;2022-09-13T15:45:04;1.50;;;1.10;;
35418;SDS011;21525;41.240;16.500;2022-09-13T15:47:31;2.78;;;0.88;;
35418;SDS011;21525;41.240;16.500;2022-09-13T15:49:57;2.88;;;0.98;;
35418;SDS011;21525;41.240;16.500;2022-09-13T15:52:23;0.95;;;0.90;;
35418;SDS011;21525;41.240;16.500;2022-09-13T15:54:49;1.35;;;0.82;;
35418;SDS011;21525;41.240;16.500;2022-09-13T15:57:17;1.98;;;0.90;;
35418;SDS011;21525;41.240;16.500;2022-09-13T15:59:46;3.85;;;1.35;;
35418;SDS011;21525;41.240;16.500;2022-09-13T16:02:30;0.90;;;0.90;;
35418;SDS011;21525;41.240;16.500;2022-09-13T16:04:57;1.58;;;0.80;;
35418;SDS011;21525;41.240;16.500;2022-09-13T16:07:24;2.70;;;1.10;;
35418;SDS011;21525;41.240;16.500;2022-09-13T16:09:50;3.40;;;1.25;;
35418;SDS011;21525;41.240;16.500;2022-09-13T16:12:17;1.30;;;1.20;;
35418;SDS011;21525;41.240;16.500;2022-09-13T16:14:43;1.58;;;1.38;;
35418;SDS011;21525;41.240;16.500;2022-09-13T16:17:14;1.25;;;1.00;;
35418;SDS011;21525;41.240;16.500;2022-09-13T16:19:45;2.15;;;1.10;;
35418;SDS011;21525;41.240;16.500;2022-09-13T16:22:10;3.17;;;1.20;;
35418;SDS011;21525;41.240;16.500;2022-09-13T16:24:36;1.45;;;1.10;;
35418;SDS011;21525;41.240;16.500;2022-09-13T16:27:02;0.85;;;0.80;;
35418;SDS011;21525;41.240;16.500;2022-09-13T16:29:29;0.95;;;0.80;;
35418;SDS011;21525;41.240;16.500;2022-09-13T16:31:58;3.33;;;1.13;;
35418;SDS011;21525;41.240;16.500;2022-09-13T16:34:26;3.10;;;1.38;;
35418;SDS011;21525;41.240;16.500;2022-09-13T16:36:51;3.50;;;1.30;;
35418;SDS011;21525;41.240;16.500;2022-09-13T16:39:17;3.75;;;1.40;;
35418;SDS011;21525;41.240;16.500;2022-09-13T16:41:43;3.22;;;1.30;;
35418;SDS011;21525;41.240;16.500;2022-09-13T16:44:09;2.80;;;1.20;;
35418;SDS011;21525;41.240;16.500;2022-09-13T16:46:35;2.28;;;1.15;;
35418;SDS011;21525;41.240;16.500;2022-09-13T16:49:01;1.17;;;1.02;;
35418;SDS011;21525;41.240;16.500;2022-09-13T16:51:28;2.20;;;1.30;;
35418;SDS011;21525;41.240;16.500;2022-09-13T16:53:54;2.58;;;1.10;;
35418;SDS011;21525;41.240;16.500;2022-09-13T16:56:21;2.20;;;1.35;;
35418;SDS011;21525;41.240;16.500;2022-09-13T16:58:48;3.58;;;1.17;;
35418;SDS011;21525;41.240;16.500;2022-09-13T17:01:16;1.67;;;1.08;;
35418;SDS011;21525;41.240;16.500;2022-09-13T17:03:45;2.05;;;1.33;;
35418;SDS011;21525;41.240;16.500;2022-09-13T17:06:12;8.90;;;4.88;;
35418;SDS011;21525;41.240;16.500;2022-09-13T17:08:40;21.83;;;10.27;;
35418;SDS011;21525;41.240;16.500;2022-09-13T17:11:08;15.90;;;7.78;;
35418;SDS011;21525;41.240;16.500;2022-09-13T17:13:36;19.50;;;11.40;;
35418;SDS011;21525;41.240;16.500;2022-09-13T17:16:04;12.77;;;5.63;;
35418;SDS011;21525;41.240;16.500;2022-09-13T17:18:32;6.47;;;3.25;;
35418;SDS011;21525;41.240;16.500;2022-09-13T17:20:58;2.08;;;1.60;;
35418;SDS011;21525;41.240;16.500;2022-09-13T17:23:25;4.25;;;2.40;;
35418;SDS011;21525;41.240;16.500;2022-09-13T17:25:51;6.50;;;3.75;;
35418;SDS011;21525;41.240;16.500;2022-09-13T17:28:17;7.00;;;3.85;;
35418;SDS011;21525;41.240;16.500;2022-09-13T17:30:44;7.43;;;3.88;;
35418;SDS011;21525;41.240;16.500;2022-09-13T17:33:11;4.60;;;2.30;;
35418;SDS011;21525;41.240;16.500;2022-09-13T17:35:37;7.95;;;2.53;;
35418;SDS011;21525;41.240;16.500;2022-09-13T17:38:04;4.05;;;2.00;;
35418;SDS011;21525;41.240;16.500;2022-09-13T17:40:30;4.22;;;2.38;;
35418;SDS011;21525;41.240;16.500;2022-09-13T17:42:57;6.22;;;2.28;;
35418;SDS011;21525;41.240;16.500;2022-09-13T17:45:24;5.22;;;2.72;;
35418;SDS011;21525;41.240;16.500;2022-09-13T17:47:51;6.47;;;2.80;;
35418;SDS011;21525;41.240;16.500;2022-09-13T17:50:18;7.50;;;2.40;;
35418;SDS011;21525;41.240;16.500;2022-09-13T17:52:44;8.15;;;2.10;;
35418;SDS011;21525;41.240;16.500;2022-09-13T17:55:10;4.10;;;2.20;;
35418;SDS011;21525;41.240;16.500;2022-09-13T17:57:37;7.60;;;2.35;;
35418;SDS011;21525;41.240;16.500;2022-09-13T18:00:04;5.90;;;2.70;;
35418;SDS011;21525;41.240;16.500;2022-09-13T18:02:34;7.53;;;2.63;;
35418;SDS011;21525;41.240;16.500;2022-09-13T18:05:01;8.32;;;4.70;;
35418;SDS011;21525;41.240;16.500;2022-09-13T18:07:26;11.98;;;6.53;;
35418;SDS011;21525;41.240;16.500;2022-09-13T18:09:52;12.05;;;5.55;;
35418;SDS011;21525;41.240;16.500;2022-09-13T18:12:18;11.15;;;4.07;;
35418;SDS011;21525;41.240;16.500;2022-09-13T18:14:44;6.65;;;3.42;;
35418;SDS011;21525;41.240;16.500;2022-09-13T18:17:10;8.43;;;3.45;;
35418;SDS011;21525;41.240;16.500;2022-09-13T18:19:40;9.82;;;4.55;;
35418;SDS011;21525;41.240;16.500;2022-09-13T18:22:07;10.18;;;4.97;;
35418;SDS011;21525;41.240;16.500;2022-09-13T18:24:33;13.50;;;5.03;;
35418;SDS011;21525;41.240;16.500;2022-09-13T18:27:00;11.32;;;5.45;;
35418;SDS011;21525;41.240;16.500;2022-09-13T18:29:26;15.57;;;5.53;;
35418;SDS011;21525;41.240;16.500;2022-09-13T18:31:53;10.10;;;4.90;;
35418;SDS011;21525;41.240;16.500;2022-09-13T18:34:20;10.70;;;4.93;;